LTAG/ADF METAR and TAF weather

Enter ICAO airport designator
Station Type Date Time Source
LTAG METAR 2018/12/11 22:20 UTC NOAA

LTAG 112220Z 36006KT 9999 -SHRA BKN030 BKN080 13/12 Q1011 TEMPO TSRA


Station Type Date Time Source
LTAG Decoded METAR 2018/12/11 22:20 UTC NOAA

Adana / Incirlik, Turkey (LTAG) 37-00N 035-25E 66M
Dec 11, 2018 - 05:20 PM EST / 2018.12.11 2220 UTC
Wind: from the N (360 degrees) at 7 MPH (6 KT):0
Visibility: greater than 7 mile(s):0
Sky conditions: mostly cloudy
Weather: light rain showers
Temperature: 55 F (13 C)
Dew Point: 53 F (12 C)
Relative Humidity: 93%
Pressure (altimeter): 29.85 in. Hg (1011 hPa)
ob: LTAG 112220Z 36006KT 9999 -SHRA BKN030 BKN080 13/12 Q1011 TEMPO TSRA
cycle: 22

Station Type Date Time Source
LTAG TAF 2018/12/11 18:36 UTC NOAA

TAF TAF LTAG 091640Z 0918/1018 VRB02KT 9999 SCT035 BKN100
TEMPO 0919/0923 -SHRA BKN030 BKN080
TEMPO 1002/1006 TSRA SCT025CB BKN030


Example: see airport list